Northwest Shearwater — ZCAO7 — position and weather

sailwx.info

Track history (hours):
 
Tides and Currents Weather Stations Pressure Air Temp Water Temp Dewpoint Dewpoint Depression Visibility Wind Speed Wind Dir Waves Ship Positions

Northwest Shearwater

Last reported at 2014-Oct-08 06:31 UTC. Time now 2014-Oct-25 14:37 UTC.
Position N 01°27' E 103°52'.
Warning: this ship's position is 17 days out of date.

Type: Ship (hazmat cat A). MMSI: 310171000.

Date/timePositionNaut miles runAvg speedWind from/ knotsBaromVisibWave heightAir tempDewpointWater temp
2014-Oct-08 06:31N 01°27' E 103°52'6 6.4
2014-Oct-08 05:33N 01°23' E 103°57'5 4.8
2014-Oct-08 04:33N 01°22' E 104°02'5 5.3
2014-Oct-08 03:33N 01°17' E 104°04'9 9.3
2014-Oct-08 02:33N 01°15' E 103°55'9 8.8
2014-Oct-08 01:33N 01°11' E 103°47'6 5.8
2014-Oct-08 00:32N 01°11' E 103°42'0 0.1
2014-Oct-07 23:29N 01°11' E 103°41'0 0.1
2014-Oct-07 22:32N 01°11' E 103°42'0 0.0
2014-Oct-07 21:32N 01°11' E 103°42'0 0.0
2014-Oct-07 20:32N 01°11' E 103°42'0 0.0
2014-Oct-07 19:32N 01°11' E 103°42'0 0.1
2014-Oct-07 18:32N 01°11' E 103°42'0 0.0
2014-Oct-07 17:32N 01°11' E 103°42'0 0.0
2014-Oct-07 16:32N 01°11' E 103°42'0 0.1
2014-Oct-07 15:32N 01°11' E 103°41'0 0.1
2014-Oct-07 14:29N 01°11' E 103°42'0 0.0
2014-Oct-07 13:32N 01°11' E 103°42'0 0.1
2014-Oct-07 12:29N 01°11' E 103°41'0 0.1
2014-Oct-07 11:32N 01°11' E 103°41'0 0.1
2014-Oct-07 10:32N 01°11' E 103°41'0 0.1
2014-Oct-07 09:29N 01°11' E 103°42'0 0.0
2014-Oct-07 08:26N 01°11' E 103°42'0 0.1
2014-Oct-07 07:32N 01°11' E 103°42'0 0.0
2014-Oct-07 06:20N 01°11' E 103°42'0 0.0
2014-Oct-07 05:32N 01°11' E 103°42'0 0.1
2014-Oct-07 04:32N 01°11' E 103°42'0 0.1
2014-Oct-07 03:29N 01°11' E 103°42'0 0.1
2014-Oct-07 02:32N 01°11' E 103°41'0 0.1
2014-Oct-07 01:32N 01°11' E 103°41'0 0.1
2014-Oct-07 00:32N 01°11' E 103°41'0 0.0
2014-Oct-06 23:23N 01°11' E 103°41'0 0.0
2014-Oct-06 22:32N 01°11' E 103°41'0 0.0
2014-Oct-06 21:29N 01°11' E 103°41'0 0.1
2014-Oct-06 20:29N 01°11' E 103°42'0 0.1
2014-Oct-06 19:32N 01°11' E 103°42'0 0.0
2014-Oct-06 18:32N 01°11' E 103°42'0 0.1
2014-Oct-06 17:32N 01°11' E 103°42'0 0.1
2014-Oct-06 16:32N 01°11' E 103°42'0 0.0
2014-Oct-06 15:26N 01°11' E 103°42'0 0.1
2014-Oct-06 14:29N 01°11' E 103°42'0 0.1
2014-Oct-06 13:29N 01°11' E 103°41'0 0.0
2014-Oct-06 12:32N 01°11' E 103°41'0 0.0
2014-Oct-06 11:32N 01°11' E 103°41'0 0.0
2014-Oct-06 10:32N 01°11' E 103°41'0 0.0
2014-Oct-06 09:32N 01°11' E 103°41'0 0.3
2014-Oct-06 08:33N 01°11' E 103°42'2 1.7
2014-Oct-06 07:32N 01°10' E 103°43'9 8.9
2014-Oct-06 06:33N 01°12' E 103°51'1110.6
2014-Oct-06 05:33N 01°15' E 104°01'72815.3
2014-Oct-04 06:00N 11°00' E 111°18'78416.3 360 / 81007.310.8 0.532.225.131.2
2014-Oct-02 06:00N 20°42' E 120°24'77116.1 040 / 141007.4 5.4 1.031.425.229.0
2014-Sep-30 06:00N 28°00' E 132°00'38316.3 040 / 91011.810.8 0.526.720.829.5
2014-Sep-29 06:29N 33°52' E 134°55'1415.1
2014-Sep-29 05:34N 34°06' E 134°56'1212.2
2014-Sep-29 04:33N 34°18' E 134°59'1313.2
2014-Sep-29 03:33N 34°29' E 135°08'1312.9
2014-Sep-29 02:33N 34°33' E 135°23'2 1.6
2014-Sep-29 01:27N 34°33' E 135°25'  
Track history (hours):
 
Tides and Currents Weather Stations Pressure Air Temp Water Temp Dewpoint Dewpoint Depression Visibility Wind Speed Wind Dir Waves Ship Positions

Northwest Shearwater

Last reported at 2014-Oct-08 06:31 UTC. Time now 2014-Oct-25 14:37 UTC.
Position N 01°27' E 103°52'.
Warning: this ship's position is 17 days out of date.

Type: Ship (hazmat cat A). MMSI: 310171000.

Date/timePositionNaut miles runAvg speedWind from/ knotsBaromVisibWave heightAir tempDewpointWater temp
2014-Oct-08 06:31N 01°27' E 103°52'6 6.4
2014-Oct-08 05:33N 01°23' E 103°57'5 4.8
2014-Oct-08 04:33N 01°22' E 104°02'5 5.3
2014-Oct-08 03:33N 01°17' E 104°04'9 9.3
2014-Oct-08 02:33N 01°15' E 103°55'9 8.8
2014-Oct-08 01:33N 01°11' E 103°47'6 5.8
2014-Oct-08 00:32N 01°11' E 103°42'0 0.1
2014-Oct-07 23:29N 01°11' E 103°41'0 0.1
2014-Oct-07 22:32N 01°11' E 103°42'0 0.0
2014-Oct-07 21:32N 01°11' E 103°42'0 0.0
2014-Oct-07 20:32N 01°11' E 103°42'0 0.0
2014-Oct-07 19:32N 01°11' E 103°42'0 0.1
2014-Oct-07 18:32N 01°11' E 103°42'0 0.0
2014-Oct-07 17:32N 01°11' E 103°42'0 0.0
2014-Oct-07 16:32N 01°11' E 103°42'0 0.1
2014-Oct-07 15:32N 01°11' E 103°41'0 0.1
2014-Oct-07 14:29N 01°11' E 103°42'0 0.0
2014-Oct-07 13:32N 01°11' E 103°42'0 0.1
2014-Oct-07 12:29N 01°11' E 103°41'0 0.1
2014-Oct-07 11:32N 01°11' E 103°41'0 0.1
2014-Oct-07 10:32N 01°11' E 103°41'0 0.1
2014-Oct-07 09:29N 01°11' E 103°42'0 0.0
2014-Oct-07 08:26N 01°11' E 103°42'0 0.1
2014-Oct-07 07:32N 01°11' E 103°42'0 0.0
2014-Oct-07 06:20N 01°11' E 103°42'0 0.0
2014-Oct-07 05:32N 01°11' E 103°42'0 0.1
2014-Oct-07 04:32N 01°11' E 103°42'0 0.1
2014-Oct-07 03:29N 01°11' E 103°42'0 0.1
2014-Oct-07 02:32N 01°11' E 103°41'0 0.1
2014-Oct-07 01:32N 01°11' E 103°41'0 0.1
2014-Oct-07 00:32N 01°11' E 103°41'0 0.0
2014-Oct-06 23:23N 01°11' E 103°41'0 0.0
2014-Oct-06 22:32N 01°11' E 103°41'0 0.0
2014-Oct-06 21:29N 01°11' E 103°41'0 0.1
2014-Oct-06 20:29N 01°11' E 103°42'0 0.1
2014-Oct-06 19:32N 01°11' E 103°42'0 0.0
2014-Oct-06 18:32N 01°11' E 103°42'0 0.1
2014-Oct-06 17:32N 01°11' E 103°42'0 0.1
2014-Oct-06 16:32N 01°11' E 103°42'0 0.0
2014-Oct-06 15:26N 01°11' E 103°42'0 0.1
2014-Oct-06 14:29N 01°11' E 103°42'0 0.1
2014-Oct-06 13:29N 01°11' E 103°41'0 0.0
2014-Oct-06 12:32N 01°11' E 103°41'0 0.0
2014-Oct-06 11:32N 01°11' E 103°41'0 0.0
2014-Oct-06 10:32N 01°11' E 103°41'0 0.0
2014-Oct-06 09:32N 01°11' E 103°41'0 0.3
2014-Oct-06 08:33N 01°11' E 103°42'2 1.7
2014-Oct-06 07:32N 01°10' E 103°43'9 8.9
2014-Oct-06 06:33N 01°12' E 103°51'1110.6
2014-Oct-06 05:33N 01°15' E 104°01'72815.3
2014-Oct-04 06:00N 11°00' E 111°18'78416.3 360 / 81007.310.8 0.532.225.131.2
2014-Oct-02 06:00N 20°42' E 120°24'77116.1 040 / 141007.4 5.4 1.031.425.229.0
2014-Sep-30 06:00N 28°00' E 132°00'38316.3 040 / 91011.810.8 0.526.720.829.5
2014-Sep-29 06:29N 33°52' E 134°55'1415.1
2014-Sep-29 05:34N 34°06' E 134°56'1212.2
2014-Sep-29 04:33N 34°18' E 134°59'1313.2
2014-Sep-29 03:33N 34°29' E 135°08'1312.9
2014-Sep-29 02:33N 34°33' E 135°23'2 1.6
2014-Sep-29 01:27N 34°33' E 135°25'  

Dump ship's entire track history